Airfield :
LOGIN :

Register | Disclaimer

   EN    FR    IT 

 










Legend :    VFR   Marginal VFR   IFR   Intensive IFR   Very Intensive IFR
Visi :
Ceiling :
>= 8 km
>= 3000ft
5 to 8 km
1000 to 3000 ft
1500m to 5 km
500 to 1000 ft
800 to 1500m
200 to 500 ft
< 800m
< 200 ft
Symbols :   Thunderstorms  Fog  Heavy snow  Heavy precipitations  Wind > 20 kt
SIGMETs :     Misc.  Thunderstorms  Icing  Turbulence  Mountain Waves  Volcanic Ashes







- Airport Elevation : 242 ft
- IATA code : DUB


EIDW - Dublin

CURRENT METAR :
  • 260630Z 04010KT 340V070 9999 FEW006 BKN009 13/12 Q1029 NOSIG

EXPIRED METARs :
  • 260600Z 03009KT 350V060 9999 FEW006 BKN009 13/12 Q1029 NOSIG
  • 260530Z 03009KT 350V050 9999 FEW006 BKN010 13/12 Q1029 NOSIG
  • 260500Z 02008KT 330V050 9999 FEW006 BKN012 13/12 Q1028 NOSIG
  • 260430Z 04008KT 9999 FEW004 BKN011 13/12 Q1028 TEMPO BKN007
  • 260400Z 04008KT 340V110 9999 FEW004 BKN011 13/12 Q1028 TEMPO BKN007

TAF TAF EIDW
Valid from the 26 at 06:00 until the 27 at 06:00 UTC


260500Z 2606/2706 03008KT 9999 SCT012
TEMPO 2606/2609 BKN012
BECMG 2610/2613 06011KT
No reported NOTAMs for that airfield.



MET'MAP, your aeronautical weather chart ! - Copyright ORBIFLY December 2007 - Disclaimer

ORBIFLY MET'MAP TEAM :

Programming & Development : Alexandra Zaïnal
Concept & Development : Baudouin d'Aumeries
Co-Development & Prog : Marc-Olivier Méhu
Technical & hardware support : Manuel Goepfert

Contact : metmap@orbifly.com




SOURCES & CREDITS :

   NOAA